메인 페이지
METAR-TAF:

METAR-TAF

공항 :

앤더슨 공군기지

Andersen, 괌, 미국

위도: 13-35N, 경도: 144-56E, 고도: 187m

현재 날씨관측

예보는 26분 전, 19:31시(UTC)에 발표되었습니다.
동북동12kt
온도 25°C
습도 89%
기압 1009 hPa
시정: 11.3km
고도 700ft 상공 구름 조금
고도 2300ft 상공 구름 보통
고도 3000ft 상공 구름 보통
고도 6000ft 상공 구름 많음
고도 10000ft 상공 흐림

METAR: PGUA 181931Z AUTO 07012KT 7SM FEW007 SCT023 SCT030 BKN060 OVC100 25/23 A2980 RMK AO2 RAB02E31 SLP082 $

시각: 05:57 (19:57 UTC)

예보

예보는 1 시간 57분 전, 18:00시(UTC)에 발표되었습니다.
예보 대상 시간: 18일 18시부터 19일 24시까지 (UTC)
동북동15kt
시정 10km 이상
고도 1500ft 상공 구름 보통
고도 2500ft 상공 구름 보통
일시적
18일 18시부터 19일 02시까지 (UTC)
동북동15kt, 순간 최대 풍속 20kt
시정: 6000m
고도 1000ft 상공 구름 많음
약한소나기,

TAF: PGUA 181800Z 1818/1924 06015KT 9999 SCT015 SCT025 QNH2979INS TEMPO 1818/1902 07015G20KT 6000 -SHRA BKN010 TX31/1903Z TN26/1818Z

4,000개 이상의 공항 관측 자료 및 예보 (METAR 및 TAF 보고).

지도상에서 검색 가능한 기상관측소가 노란 점과 빨간 점으로 표시되어 있습니다.

기상관측소 명을 보려면 표시 위로 마우스를 이동하세요.

날씨 관측과 예보를 보려면 클릭하세요.

지도 변경 : 확대하려면 엑스 표시가 있는 녹색 버튼, 축소하려면 빼기 표시가 있는 녹색 버튼, 다음 페이지의 지도를 보려면 녹색 화살표를 클릭하세요.


METAR-TAF: